createdAt,value
2023-02-25T00:00:54.363Z,35.80
2023-02-25T00:05:59.163Z,36.85
2023-02-25T00:11:04.445Z,39.53
2023-02-25T00:16:09.098Z,34.05
2023-02-25T00:21:16.272Z,33.25
2023-02-25T00:26:20.321Z,33.25
2023-02-25T00:31:26.282Z,30.63
2023-02-25T00:36:31.077Z,34.13
2023-02-25T00:41:34.744Z,32.95
2023-02-25T00:46:38.224Z,30.55
2023-02-25T00:51:43.137Z,33.33
2023-02-25T01:01:49.874Z,34.30
2023-02-25T01:06:55.432Z,38.70
2023-02-25T01:11:58.814Z,38.80
2023-02-25T01:17:03.646Z,31.88
2023-02-25T01:27:11.911Z,31.43
2023-02-25T01:32:16.714Z,29.77
2023-02-25T01:42:25.075Z,29.47
2023-02-25T01:47:33.772Z,34.35
2023-02-25T01:52:41.592Z,33.28
2023-02-25T01:57:45.017Z,32.17
2023-02-25T02:02:50.811Z,31.83
2023-02-25T02:07:55.888Z,32.88
2023-02-25T02:12:59.496Z,34.63
2023-02-25T02:18:23.210Z,36.30
2023-02-25T02:24:07.964Z,35.25
2023-02-25T02:29:35.636Z,31.60
2023-02-25T02:34:47.661Z,30.95
2023-02-25T02:40:00.542Z,28.40
2023-02-25T02:45:12.863Z,31.65
2023-02-25T02:50:25.099Z,32.15
2023-02-25T02:55:33.737Z,33.78
2023-02-25T03:00:40.649Z,29.05
2023-02-25T03:05:50.457Z,37.50
2023-02-25T03:10:54.313Z,33.33
2023-02-25T03:16:01.463Z,35.03
2023-02-25T03:21:14.661Z,35.28
2023-02-25T03:26:24.929Z,34.53
2023-02-25T03:31:31.680Z,36.28
2023-02-25T03:36:41.625Z,42.53
2023-02-25T03:41:48.414Z,39.53
2023-02-25T03:46:53.806Z,44.95
2023-02-25T03:52:01.253Z,39.92
2023-02-25T03:57:04.781Z,38.20
2023-02-25T04:02:08.928Z,33.83
2023-02-25T04:07:13.836Z,34.72
2023-02-25T04:17:20.650Z,32.72
2023-02-25T04:22:26.007Z,31.73
2023-02-25T04:27:29.523Z,31.05
2023-02-25T04:32:33.082Z,29.30
2023-02-25T04:37:37.996Z,31.90
2023-02-25T04:47:44.864Z,27.65
2023-02-25T04:52:49.787Z,27.73
2023-02-25T05:02:56.633Z,34.60
2023-02-25T05:08:01.569Z,31.10
2023-02-25T05:13:05.128Z,31.90
2023-02-25T05:18:08.911Z,33.95
2023-02-25T05:23:13.923Z,30.33
2023-02-25T05:28:17.479Z,30.52
2023-02-25T05:33:20.969Z,32.58
2023-02-25T05:38:26.325Z,29.95
2023-02-25T05:43:30.227Z,28.58
2023-02-25T05:48:34.416Z,29.27
2023-02-25T05:53:39.671Z,28.13
2023-02-25T05:58:43.504Z,25.88
2023-02-25T06:03:50.233Z,23.42
2023-02-25T06:08:55.339Z,24.55
2023-02-25T06:14:00.048Z,21.83
2023-02-25T06:19:03.686Z,25.70
2023-02-25T06:24:09.172Z,24.55
2023-02-25T06:29:13.033Z,24.52
2023-02-25T06:34:16.606Z,21.20
2023-02-25T06:39:21.390Z,20.63
2023-02-25T06:44:24.827Z,20.75
2023-02-25T06:49:28.192Z,22.52
2023-02-25T06:54:33.075Z,18.67
2023-02-25T07:04:39.689Z,20.33
2023-02-25T07:09:44.617Z,18.52
2023-02-25T07:19:51.495Z,22.10
2023-02-25T07:24:56.292Z,18.33
2023-02-25T07:35:04.720Z,20.48
2023-02-25T07:40:13.734Z,19.17
2023-02-25T07:45:17.096Z,18.38
2023-02-25T07:50:20.837Z,18.17
2023-02-25T07:55:25.986Z,16.55
2023-02-25T08:00:29.461Z,22.67
2023-02-25T08:05:35.452Z,16.48
2023-02-25T08:10:40.245Z,17.02
2023-02-25T08:15:43.878Z,16.25
2023-02-25T08:20:48.688Z,15.40
2023-02-25T08:25:56.388Z,17.45
2023-02-25T08:31:01.436Z,15.25
2023-02-25T08:41:14.864Z,18.52
2023-02-25T08:46:20.889Z,14.77
2023-02-25T08:51:34.153Z,15.82
2023-02-25T08:56:44.533Z,18.02
2023-02-25T09:01:49.317Z,16.85
2023-02-25T09:06:54.333Z,14.45
2023-02-25T09:17:04.176Z,14.50
2023-02-25T09:22:08.456Z,13.43
2023-02-25T09:27:13.507Z,15.23
2023-02-25T09:37:22.080Z,17.23
2023-02-25T09:42:34.714Z,16.02
2023-02-25T09:47:45.999Z,13.35
2023-02-25T09:53:07.771Z,11.70
2023-02-25T09:58:20.419Z,14.07
2023-02-25T10:03:28.289Z,14.18
2023-02-25T10:08:40.570Z,12.30
2023-02-25T10:13:55.877Z,10.90
2023-02-25T10:24:19.907Z,11.98
2023-02-25T10:29:30.037Z,11.95
2023-02-25T10:34:38.980Z,10.02
2023-02-25T10:39:42.486Z,11.63
2023-02-25T10:44:48.062Z,11.65
2023-02-25T10:50:15.043Z,11.35
2023-02-25T10:55:28.572Z,8.52
2023-02-25T11:00:36.575Z,12.40
2023-02-25T11:05:43.763Z,10.40
2023-02-25T11:11:03.588Z,10.35
2023-02-25T11:16:12.656Z,8.40
2023-02-25T11:21:16.458Z,7.15
2023-02-25T11:26:30.600Z,10.27
2023-02-25T11:31:37.832Z,10.70
2023-02-25T11:36:42.037Z,9.95
2023-02-25T11:41:46.529Z,7.93
2023-02-25T11:47:01.707Z,11.15
2023-02-25T11:57:21.304Z,13.02
2023-02-25T12:02:45.587Z,12.07
2023-02-25T12:08:14.402Z,9.73
2023-02-25T12:13:57.228Z,10.85
2023-02-25T12:19:38.900Z,9.82
2023-02-25T12:25:15.184Z,8.88
2023-02-25T12:30:50.163Z,10.48
2023-02-25T12:36:11.528Z,8.85
2023-02-25T12:41:39.726Z,12.45
2023-02-25T12:46:59.013Z,9.77
2023-02-25T12:52:19.196Z,10.05
2023-02-25T12:57:37.554Z,10.18
2023-02-25T13:02:54.941Z,10.95
2023-02-25T13:08:51.900Z,13.13
2023-02-25T13:14:28.589Z,12.82
2023-02-25T13:20:08.203Z,19.50
2023-02-25T13:25:16.532Z,13.75
2023-02-25T13:30:31.453Z,13.85
2023-02-25T13:35:46.398Z,13.45
2023-02-25T13:41:01.137Z,10.18
2023-02-25T13:46:27.477Z,13.32
2023-02-25T13:51:58.001Z,10.95
2023-02-25T13:57:11.735Z,13.07
2023-02-25T14:02:51.027Z,13.10
2023-02-25T14:08:14.808Z,16.38
2023-02-25T14:13:54.538Z,18.30
2023-02-25T14:19:20.998Z,17.63
2023-02-25T14:24:32.425Z,16.15
2023-02-25T14:29:44.553Z,15.88
2023-02-25T14:35:00.861Z,16.30
2023-02-25T14:40:20.707Z,19.83
2023-02-25T14:45:29.379Z,17.77
2023-02-25T14:50:41.672Z,16.10
2023-02-25T14:56:22.444Z,15.73
2023-02-25T15:02:03.453Z,16.67
2023-02-25T15:07:16.805Z,18.35
2023-02-25T15:12:44.586Z,14.65
2023-02-25T15:18:34.755Z,13.25
2023-02-25T15:23:52.008Z,18.35
2023-02-25T15:28:57.173Z,16.55
2023-02-25T15:34:39.973Z,17.50
2023-02-25T15:39:54.001Z,19.08
2023-02-25T15:45:39.060Z,18.15
2023-02-25T15:50:55.010Z,21.05
2023-02-25T15:56:25.613Z,21.13
2023-02-25T16:01:48.515Z,19.95
2023-02-25T16:06:53.758Z,20.65
2023-02-25T16:12:08.435Z,22.83
2023-02-25T16:17:19.121Z,23.25
2023-02-25T16:22:25.182Z,23.73
2023-02-25T16:27:45.392Z,23.50
2023-02-25T16:33:01.014Z,26.58
2023-02-25T16:38:10.495Z,28.08
2023-02-25T16:43:17.277Z,29.80
2023-02-25T16:48:28.594Z,26.83
2023-02-25T16:53:33.002Z,27.52
2023-02-25T16:58:36.391Z,28.33
2023-02-25T17:03:47.033Z,27.92
2023-02-25T17:08:52.331Z,25.98
2023-02-25T17:13:58.883Z,26.95
2023-02-25T17:19:07.064Z,28.15
2023-02-25T17:24:16.221Z,26.08
2023-02-25T17:29:20.831Z,26.10
2023-02-25T17:34:33.222Z,30.92
2023-02-25T17:39:37.481Z,30.73
2023-02-25T17:44:47.575Z,33.88
2023-02-25T17:49:52.967Z,30.38
2023-02-25T17:55:00.668Z,28.60
2023-02-25T18:00:14.332Z,33.35
2023-02-25T18:05:25.270Z,32.30
2023-02-25T18:10:44.503Z,34.20
2023-02-25T18:15:53.216Z,33.13
2023-02-25T18:21:03.837Z,33.73
2023-02-25T18:26:16.464Z,33.35
2023-02-25T18:31:20.546Z,35.08
2023-02-25T18:36:27.926Z,27.53
2023-02-25T18:41:31.412Z,32.40
2023-02-25T18:46:34.977Z,31.48
2023-02-25T18:51:40.066Z,34.58
2023-02-25T18:56:43.521Z,33.47
2023-02-25T19:01:47.190Z,37.65
2023-02-25T19:06:52.025Z,26.73
2023-02-25T19:11:55.531Z,38.63
2023-02-25T19:16:59.026Z,36.78
2023-02-25T19:22:03.821Z,40.10
2023-02-25T19:27:07.233Z,46.60
2023-02-25T19:32:10.801Z,42.33
2023-02-25T19:37:17.831Z,44.83
2023-02-25T19:42:21.259Z,44.67
2023-02-25T19:47:25.146Z,40.33
2023-02-25T19:52:30.965Z,48.65
2023-02-25T19:57:34.603Z,47.15
2023-02-25T20:02:38.147Z,43.80
2023-02-25T20:07:44.560Z,45.53
2023-02-25T20:12:48.466Z,50.15
2023-02-25T20:17:55.123Z,48.58
2023-02-25T20:22:59.913Z,43.88
2023-02-25T20:28:03.609Z,52.92
2023-02-25T20:33:07.160Z,45.88
2023-02-25T20:38:17.786Z,46.75
2023-02-25T20:43:21.463Z,30.88
2023-02-25T20:48:29.416Z,41.35
2023-02-25T20:53:35.011Z,31.17
2023-02-25T20:58:38.448Z,36.17
2023-02-25T21:03:41.809Z,41.35
2023-02-25T21:08:47.253Z,28.33
2023-02-25T21:13:51.650Z,36.50
2023-02-25T21:18:55.202Z,27.85
2023-02-25T21:23:59.955Z,30.50
2023-02-25T21:34:09.224Z,32.20
2023-02-25T21:39:14.130Z,37.42
2023-02-25T21:49:21.200Z,31.35
2023-02-25T21:54:26.144Z,26.50
2023-02-25T22:04:32.699Z,28.20
2023-02-25T22:09:37.493Z,28.20
2023-02-25T22:14:40.904Z,30.02
2023-02-25T22:19:44.283Z,28.77
2023-02-25T22:24:49.180Z,34.03
2023-02-25T22:29:52.537Z,34.30
2023-02-25T22:34:55.949Z,31.45
2023-02-25T22:40:00.859Z,31.90
2023-02-25T22:50:09.357Z,29.80
2023-02-25T22:55:14.322Z,31.33
2023-02-25T23:00:18.702Z,33.58
2023-02-25T23:05:22.135Z,31.75
2023-02-25T23:10:28.233Z,32.70
2023-02-25T23:15:33.253Z,36.70
2023-02-25T23:20:38.975Z,39.72
2023-02-25T23:25:43.871Z,38.45
2023-02-25T23:35:50.434Z,47.08
2023-02-25T23:41:00.057Z,52.35
2023-02-25T23:46:04.764Z,43.15
2023-02-25T23:51:09.670Z,50.30
2023-02-25T23:56:15.069Z,51.25
